createdAt,value
2023-03-25T00:02:05.334Z,4.30
2023-03-25T00:04:35.321Z,4.68
2023-03-25T00:07:04.511Z,4.47
2023-03-25T00:09:34.923Z,4.72
2023-03-25T00:12:04.149Z,4.80
2023-03-25T00:14:34.020Z,4.63
2023-03-25T00:17:03.090Z,4.78
2023-03-25T00:19:32.103Z,4.50
2023-03-25T00:22:01.609Z,5.00
2023-03-25T00:24:30.764Z,4.35
2023-03-25T00:27:01.262Z,4.40
2023-03-25T00:29:30.244Z,4.15
2023-03-25T00:31:59.291Z,4.57
2023-03-25T00:34:28.208Z,5.03
2023-03-25T00:36:57.655Z,5.28
2023-03-25T00:39:26.447Z,5.30
2023-03-25T00:41:57.254Z,4.43
2023-03-25T00:44:27.391Z,5.43
2023-03-25T00:46:56.516Z,5.10
2023-03-25T00:49:25.523Z,5.15
2023-03-25T00:51:54.568Z,5.00
2023-03-25T00:54:23.473Z,5.07
2023-03-25T00:56:54.285Z,5.90
2023-03-25T00:59:23.375Z,5.55
2023-03-25T01:01:56.293Z,5.45
2023-03-25T01:04:25.274Z,5.38
2023-03-25T01:06:55.160Z,5.07
2023-03-25T01:09:24.128Z,4.88
2023-03-25T01:11:53.160Z,5.03
2023-03-25T01:14:27.367Z,5.28
2023-03-25T01:17:00.457Z,5.82
2023-03-25T01:19:32.157Z,5.22
2023-03-25T01:22:01.281Z,5.65
2023-03-25T01:24:30.319Z,5.72
2023-03-25T01:26:59.383Z,6.18
2023-03-25T01:29:30.333Z,5.80
2023-03-25T01:32:01.297Z,5.68
2023-03-25T01:34:30.082Z,5.85
2023-03-25T01:36:59.560Z,6.35
2023-03-25T01:39:28.342Z,5.57
2023-03-25T01:46:29.405Z,6.05
2023-03-25T01:49:04.493Z,5.70
2023-03-25T01:51:39.527Z,5.55
2023-03-25T01:54:08.683Z,5.97
2023-03-25T01:56:42.833Z,5.90
2023-03-25T01:59:12.154Z,6.15
2023-03-25T02:01:41.923Z,6.20
2023-03-25T02:04:13.072Z,6.20
2023-03-25T02:06:46.716Z,6.15
2023-03-25T02:09:21.236Z,5.57
2023-03-25T02:11:50.622Z,6.45
2023-03-25T02:14:25.323Z,6.10
2023-03-25T02:17:10.251Z,6.40
2023-03-25T02:20:37.432Z,6.13
2023-03-25T02:23:43.887Z,6.30
2023-03-25T02:26:50.071Z,6.35
2023-03-25T02:29:40.787Z,6.40
2023-03-25T02:32:35.929Z,6.05
2023-03-25T02:35:41.597Z,6.43
2023-03-25T02:38:30.759Z,5.70
2023-03-25T02:41:08.056Z,5.88
2023-03-25T02:43:46.537Z,6.60
2023-03-25T02:46:19.635Z,6.65
2023-03-25T02:48:57.361Z,6.38
2023-03-25T02:51:32.865Z,6.90
2023-03-25T02:54:09.701Z,6.47
2023-03-25T02:56:44.187Z,6.95
2023-03-25T02:59:15.283Z,6.40
2023-03-25T03:01:45.609Z,6.72
2023-03-25T03:04:14.525Z,6.32
2023-03-25T03:06:45.158Z,6.53
2023-03-25T03:09:38.047Z,6.85
2023-03-25T03:12:29.268Z,6.78
2023-03-25T03:15:21.785Z,6.40
2023-03-25T03:18:15.721Z,6.90
2023-03-25T03:20:56.841Z,6.38
2023-03-25T03:23:33.808Z,6.90
2023-03-25T03:26:12.161Z,6.80
2023-03-25T03:28:48.125Z,7.43
2023-03-25T03:31:48.655Z,7.85
2023-03-25T03:34:24.410Z,7.15
2023-03-25T03:36:58.273Z,7.53
2023-03-25T03:39:33.910Z,7.28
2023-03-25T03:42:16.915Z,7.07
2023-03-25T03:44:54.125Z,7.38
2023-03-25T03:47:29.925Z,7.85
2023-03-25T03:50:06.586Z,7.00
2023-03-25T03:52:45.240Z,7.68
2023-03-25T03:55:22.160Z,7.72
2023-03-25T03:58:00.571Z,6.95
2023-03-25T04:00:39.400Z,7.65
2023-03-25T04:03:16.170Z,7.00
2023-03-25T04:05:56.423Z,7.68
2023-03-25T04:08:33.414Z,7.40
2023-03-25T04:11:09.761Z,7.47
2023-03-25T04:13:45.743Z,8.25
2023-03-25T04:16:15.671Z,7.63
2023-03-25T04:18:48.011Z,7.45
2023-03-25T04:21:17.719Z,7.72
2023-03-25T04:23:46.500Z,8.35
2023-03-25T04:26:15.574Z,8.70
2023-03-25T04:28:46.429Z,8.55
2023-03-25T04:31:17.760Z,8.15
2023-03-25T04:33:48.635Z,8.98
2023-03-25T04:36:17.813Z,8.63
2023-03-25T04:38:46.834Z,8.60
2023-03-25T04:41:16.058Z,8.65
2023-03-25T04:43:46.185Z,9.57
2023-03-25T04:46:17.990Z,7.45
2023-03-25T04:48:47.899Z,8.00
2023-03-25T04:51:17.120Z,8.68
2023-03-25T04:53:45.823Z,8.23
2023-03-25T04:56:19.746Z,8.57
2023-03-25T04:58:49.908Z,8.52
2023-03-25T05:01:31.012Z,8.95
2023-03-25T05:04:05.888Z,8.27
2023-03-25T05:06:38.520Z,8.13
2023-03-25T05:09:11.660Z,8.98
2023-03-25T05:11:41.946Z,8.52
2023-03-25T05:14:14.578Z,8.82
2023-03-25T05:16:44.737Z,8.50
2023-03-25T05:19:14.995Z,9.00
2023-03-25T05:21:44.079Z,9.18
2023-03-25T05:24:14.469Z,9.43
2023-03-25T05:26:44.614Z,8.75
2023-03-25T05:29:16.600Z,9.57
2023-03-25T05:31:48.620Z,9.95
2023-03-25T05:34:17.944Z,10.25
2023-03-25T05:36:47.758Z,8.85
2023-03-25T05:39:17.230Z,9.13
2023-03-25T05:41:46.274Z,9.98
2023-03-25T05:44:19.200Z,9.38
2023-03-25T05:46:48.356Z,10.07
2023-03-25T05:49:17.068Z,9.15
2023-03-25T05:51:46.074Z,9.60
2023-03-25T05:58:46.783Z,9.18
2023-03-25T06:01:32.118Z,10.73
2023-03-25T06:04:03.461Z,10.48
2023-03-25T06:06:35.987Z,10.45
2023-03-25T06:09:05.447Z,10.70
2023-03-25T06:11:38.589Z,10.85
2023-03-25T06:14:09.334Z,11.07
2023-03-25T06:16:39.573Z,10.45
2023-03-25T06:19:09.530Z,10.63
2023-03-25T06:21:39.395Z,10.88
2023-03-25T06:24:09.695Z,10.85
2023-03-25T06:26:38.403Z,10.85
2023-03-25T06:29:08.621Z,10.95
2023-03-25T06:31:38.735Z,9.70
2023-03-25T06:34:08.034Z,10.93
2023-03-25T06:36:36.801Z,10.60
2023-03-25T06:39:06.555Z,11.00
2023-03-25T06:41:37.985Z,10.15
2023-03-25T06:44:16.850Z,10.18
2023-03-25T06:47:13.420Z,10.10
2023-03-25T06:49:46.784Z,10.68
2023-03-25T06:52:15.963Z,9.10
2023-03-25T06:54:45.018Z,9.35
2023-03-25T06:57:13.941Z,9.20
2023-03-25T06:59:42.994Z,10.43
2023-03-25T07:02:15.186Z,10.18
2023-03-25T07:04:44.289Z,9.63
2023-03-25T07:07:13.035Z,9.88
2023-03-25T07:09:42.154Z,9.18
2023-03-25T07:12:11.083Z,9.38
2023-03-25T07:14:40.181Z,9.38
2023-03-25T07:17:08.914Z,8.90
2023-03-25T07:19:39.354Z,8.38
2023-03-25T07:22:08.089Z,8.57
2023-03-25T07:24:37.095Z,8.18
2023-03-25T07:27:05.961Z,8.00
2023-03-25T07:29:37.239Z,8.20
2023-03-25T07:32:06.802Z,8.02
2023-03-25T07:34:36.371Z,8.23
2023-03-25T07:37:08.197Z,6.93
2023-03-25T07:39:37.311Z,8.45
2023-03-25T07:42:07.477Z,7.90
2023-03-25T07:44:59.233Z,7.30
2023-03-25T07:47:28.549Z,7.75
2023-03-25T07:49:57.672Z,6.93
2023-03-25T07:52:27.774Z,7.07
2023-03-25T07:54:56.825Z,7.78
2023-03-25T07:57:25.748Z,7.60
2023-03-25T07:59:54.802Z,7.57
2023-03-25T08:02:23.611Z,7.35
2023-03-25T08:04:54.528Z,7.35
2023-03-25T08:07:23.237Z,7.65
2023-03-25T08:09:53.629Z,7.10
2023-03-25T08:16:56.024Z,7.05
2023-03-25T08:19:24.892Z,6.93
2023-03-25T08:21:53.905Z,6.00
2023-03-25T08:24:24.614Z,6.45
2023-03-25T08:26:55.336Z,6.03
2023-03-25T08:29:24.717Z,5.50
2023-03-25T08:31:53.981Z,5.55
2023-03-25T08:34:28.886Z,6.63
2023-03-25T08:51:06.768Z,5.40
2023-03-25T08:53:35.579Z,5.10
2023-03-25T08:56:04.775Z,5.75
2023-03-25T08:58:33.593Z,5.03
2023-03-25T09:01:02.675Z,4.68
2023-03-25T09:03:32.804Z,5.03
2023-03-25T09:06:07.875Z,4.45
2023-03-25T09:08:38.025Z,4.53
2023-03-25T09:11:08.059Z,4.20
2023-03-25T09:13:36.777Z,4.82
2023-03-25T09:16:06.914Z,5.10
2023-03-25T09:18:36.799Z,4.85
2023-03-25T09:21:08.016Z,4.22
2023-03-25T09:23:37.258Z,4.13
2023-03-25T09:26:07.298Z,3.70
2023-03-25T09:28:36.134Z,3.90
2023-03-25T09:31:05.918Z,3.30
2023-03-25T09:33:34.877Z,4.20
2023-03-25T09:36:04.276Z,4.18
2023-03-25T09:48:10.988Z,4.70
2023-03-25T09:55:21.813Z,4.00
2023-03-25T09:57:57.733Z,4.20
2023-03-25T10:00:27.639Z,4.32
2023-03-25T10:03:14.321Z,4.63
2023-03-25T10:06:13.272Z,4.40
2023-03-25T10:09:03.755Z,3.67
2023-03-25T10:11:45.073Z,4.95
2023-03-25T10:14:22.770Z,4.10
2023-03-25T10:17:10.841Z,4.18
2023-03-25T10:20:01.493Z,3.97
2023-03-25T10:22:41.148Z,3.92
2023-03-25T10:25:19.714Z,4.00
2023-03-25T10:27:53.765Z,4.18
2023-03-25T10:30:27.587Z,3.92
2023-03-25T10:32:59.041Z,2.60
2023-03-25T10:35:32.566Z,3.08
2023-03-25T10:38:14.520Z,3.45
2023-03-25T10:40:50.268Z,3.00
2023-03-25T10:43:28.357Z,3.13
2023-03-25T10:46:04.567Z,2.50
2023-03-25T10:48:34.956Z,9.48
2023-03-25T10:51:10.847Z,3.08
2023-03-25T10:53:43.144Z,2.40
2023-03-25T10:56:17.353Z,2.85
2023-03-25T10:58:51.744Z,2.58
2023-03-25T11:01:28.661Z,2.67
2023-03-25T11:04:01.858Z,2.70
2023-03-25T11:06:37.589Z,3.38
2023-03-25T11:09:25.750Z,4.22
2023-03-25T11:11:55.965Z,5.53
2023-03-25T11:14:27.753Z,3.20
2023-03-25T11:17:03.112Z,4.32
2023-03-25T11:19:42.927Z,6.40
2023-03-25T11:22:20.671Z,19.75
2023-03-25T11:24:54.635Z,2.90
2023-03-25T11:27:28.477Z,10.80
2023-03-25T11:30:05.224Z,27.92
2023-03-25T11:32:36.726Z,16.08
2023-03-25T11:35:17.102Z,3.55
2023-03-25T11:37:54.892Z,3.70
2023-03-25T11:44:59.602Z,2.92
2023-03-25T11:47:34.441Z,2.70
2023-03-25T11:50:03.999Z,2.45
2023-03-25T11:52:42.588Z,2.45
2023-03-25T11:55:22.594Z,2.97
2023-03-25T11:57:56.421Z,2.30
2023-03-25T12:00:37.744Z,2.67
2023-03-25T12:03:20.714Z,2.35
2023-03-25T12:06:05.436Z,2.58
2023-03-25T12:08:45.161Z,2.30
2023-03-25T12:11:21.687Z,2.38
2023-03-25T12:14:34.081Z,2.45
2023-03-25T12:17:19.552Z,2.97
2023-03-25T12:20:01.232Z,3.25
2023-03-25T12:22:54.666Z,2.95
2023-03-25T12:25:37.692Z,2.75
2023-03-25T12:28:33.497Z,2.78
2023-03-25T12:31:18.394Z,2.83
2023-03-25T12:34:04.898Z,2.83
2023-03-25T12:36:49.212Z,2.55
2023-03-25T12:39:43.987Z,3.08
2023-03-25T12:42:33.603Z,2.60
2023-03-25T12:46:45.448Z,2.63
2023-03-25T12:49:37.383Z,2.83
2023-03-25T12:52:19.052Z,2.70
2023-03-25T12:55:04.589Z,3.03
2023-03-25T12:57:58.902Z,2.50
2023-03-25T13:02:06.426Z,3.08
2023-03-25T13:04:56.075Z,2.72
2023-03-25T13:07:33.457Z,2.83
2023-03-25T13:10:14.341Z,3.00
2023-03-25T13:12:50.366Z,3.30
2023-03-25T13:15:27.687Z,3.45
2023-03-25T13:18:04.168Z,3.85
2023-03-25T13:20:42.650Z,3.75
2023-03-25T13:23:21.513Z,4.20
2023-03-25T13:25:57.678Z,4.70
2023-03-25T13:28:39.308Z,4.70
2023-03-25T13:35:48.903Z,5.35
2023-03-25T13:38:28.571Z,4.80
2023-03-25T13:41:13.006Z,3.83
2023-03-25T13:43:55.588Z,4.13
2023-03-25T13:46:33.000Z,4.30
2023-03-25T13:49:13.174Z,4.18
2023-03-25T13:51:43.636Z,4.00
2023-03-25T13:59:15.279Z,4.30
2023-03-25T14:02:13.687Z,4.32
2023-03-25T14:05:21.913Z,4.38
2023-03-25T14:08:23.989Z,4.18
2023-03-25T14:11:03.015Z,5.30
2023-03-25T14:18:06.263Z,4.80
2023-03-25T14:20:41.620Z,4.50
2023-03-25T14:23:20.076Z,4.60
2023-03-25T14:25:54.273Z,4.95
2023-03-25T14:28:37.637Z,4.93
2023-03-25T14:31:29.886Z,4.95
2023-03-25T14:34:25.465Z,4.22
2023-03-25T14:37:27.549Z,4.45
2023-03-25T14:40:02.138Z,3.33
2023-03-25T14:42:43.440Z,3.90
2023-03-25T14:46:14.479Z,3.83
2023-03-25T14:48:46.337Z,3.33
2023-03-25T14:51:41.239Z,1.52
2023-03-25T14:54:29.674Z,1.38
2023-03-25T14:57:08.029Z,1.10
2023-03-25T14:59:42.150Z,1.13
2023-03-25T15:02:18.406Z,0.98
2023-03-25T15:04:54.778Z,1.00
2023-03-25T15:07:44.293Z,0.98
2023-03-25T15:10:26.595Z,0.90
2023-03-25T15:13:06.509Z,0.85
2023-03-25T15:16:00.231Z,0.95
2023-03-25T15:19:07.247Z,1.00
2023-03-25T15:22:11.235Z,1.13
2023-03-25T15:30:09.436Z,2.63
2023-03-25T15:32:57.812Z,1.00
2023-03-25T15:35:51.895Z,1.00
2023-03-25T15:38:51.620Z,1.20
2023-03-25T15:41:55.438Z,1.40
2023-03-25T15:49:29.743Z,1.50
2023-03-25T15:53:42.873Z,1.77
2023-03-25T15:56:17.260Z,1.70
2023-03-25T15:58:56.032Z,1.58
2023-03-25T16:01:30.422Z,1.90
2023-03-25T16:04:06.986Z,1.95
2023-03-25T16:11:26.294Z,1.73
2023-03-25T16:14:12.925Z,2.30
2023-03-25T16:21:16.450Z,2.30
2023-03-25T16:23:45.523Z,2.60
2023-03-25T16:26:16.358Z,2.53
2023-03-25T16:28:46.512Z,2.38
2023-03-25T16:31:34.921Z,2.47
2023-03-25T16:34:08.333Z,2.65
2023-03-25T16:36:38.790Z,3.05
2023-03-25T16:39:14.793Z,3.20
2023-03-25T16:41:49.042Z,5.82
2023-03-25T16:44:23.600Z,5.20
2023-03-25T16:51:29.720Z,4.20
2023-03-25T16:54:00.347Z,3.05
2023-03-25T17:01:04.163Z,3.45
2023-03-25T17:03:51.619Z,3.67
2023-03-25T17:06:27.135Z,3.88
2023-03-25T17:13:40.065Z,3.60
2023-03-25T17:16:10.613Z,3.40
2023-03-25T17:18:40.635Z,3.75
2023-03-25T17:21:13.815Z,3.58
2023-03-25T17:23:47.226Z,4.43
2023-03-25T17:26:21.292Z,4.40
2023-03-25T17:29:03.293Z,4.22
2023-03-25T17:31:36.562Z,4.60
2023-03-25T17:34:09.890Z,3.97
2023-03-25T17:36:41.654Z,4.93
2023-03-25T17:39:20.927Z,4.85
2023-03-25T17:41:58.842Z,5.57
2023-03-25T17:44:36.069Z,5.32
2023-03-25T17:47:05.644Z,5.97
2023-03-25T17:49:35.695Z,6.15
2023-03-25T17:52:04.536Z,6.20
2023-03-25T17:54:33.632Z,6.25
2023-03-25T17:57:02.582Z,6.05
2023-03-25T17:59:33.130Z,6.55
2023-03-25T18:02:02.047Z,6.65
2023-03-25T18:04:31.246Z,7.80
2023-03-25T18:07:00.027Z,7.25
2023-03-25T18:09:29.008Z,7.47
2023-03-25T18:11:59.578Z,8.60
2023-03-25T18:14:29.007Z,8.90
2023-03-25T18:16:59.135Z,8.48
2023-03-25T18:19:31.953Z,8.55
2023-03-25T18:22:09.979Z,8.48
2023-03-25T18:24:48.393Z,8.85
2023-03-25T18:27:17.273Z,9.27
2023-03-25T18:29:46.422Z,16.15
2023-03-25T18:32:16.564Z,10.88
2023-03-25T18:34:46.770Z,11.57
2023-03-25T18:37:15.538Z,10.23
2023-03-25T18:39:44.588Z,11.30
2023-03-25T18:42:13.485Z,9.65
2023-03-25T18:44:42.612Z,8.77
2023-03-25T18:47:12.260Z,7.30
2023-03-25T18:49:42.654Z,6.07
2023-03-25T18:52:11.436Z,5.38
2023-03-25T18:54:41.295Z,4.82
2023-03-25T18:57:10.406Z,4.28
2023-03-25T18:59:39.510Z,4.20
2023-03-25T19:02:08.391Z,3.70
2023-03-25T19:04:39.838Z,4.55
2023-03-25T19:07:13.379Z,4.65
2023-03-25T19:14:14.673Z,4.30
2023-03-25T19:16:54.027Z,4.10
2023-03-25T19:19:27.172Z,3.38
2023-03-25T19:26:29.216Z,3.50
2023-03-25T19:28:57.977Z,3.22
2023-03-25T19:31:29.684Z,2.90
2023-03-25T19:33:58.750Z,3.20
2023-03-25T19:36:27.827Z,3.88
2023-03-25T19:39:05.587Z,4.28
2023-03-25T19:41:42.145Z,4.25
2023-03-25T19:44:11.366Z,4.72
2023-03-25T19:46:40.666Z,5.70
2023-03-25T19:49:09.445Z,8.05
2023-03-25T19:51:38.790Z,6.75
2023-03-25T19:54:09.970Z,6.97
2023-03-25T19:56:41.820Z,5.75
2023-03-25T19:59:11.013Z,6.40
2023-03-25T20:01:41.592Z,5.65
2023-03-25T20:04:10.719Z,5.45
2023-03-25T20:06:39.940Z,4.20
2023-03-25T20:09:10.614Z,4.70
2023-03-25T20:11:41.067Z,3.72
2023-03-25T20:14:09.866Z,4.35
2023-03-25T20:16:39.069Z,4.45
2023-03-25T20:23:39.782Z,5.88
2023-03-25T20:30:42.236Z,5.85
2023-03-25T20:37:43.850Z,5.45
2023-03-25T20:40:16.133Z,5.53
2023-03-25T20:42:48.015Z,5.93
2023-03-25T20:45:19.182Z,6.18
2023-03-25T20:47:49.678Z,6.20
2023-03-25T20:50:18.969Z,6.65
2023-03-25T20:52:48.080Z,6.80
2023-03-25T20:55:17.268Z,6.80
2023-03-25T20:57:46.276Z,6.55
2023-03-25T21:00:18.105Z,5.85
2023-03-25T21:05:18.172Z,7.13
2023-03-25T21:07:48.388Z,6.82
2023-03-25T21:10:18.032Z,6.93
2023-03-25T21:17:22.329Z,7.20
2023-03-25T21:19:53.541Z,6.72
2023-03-25T21:26:56.552Z,7.40
2023-03-25T21:29:25.292Z,8.45
2023-03-25T21:31:54.392Z,8.00
2023-03-25T21:34:23.359Z,8.63
2023-03-25T21:36:52.721Z,9.18
2023-03-25T21:39:21.488Z,8.27
2023-03-25T21:41:50.967Z,9.40
2023-03-25T21:44:21.321Z,9.52
2023-03-25T21:46:53.594Z,9.77
2023-03-25T21:49:22.656Z,9.82
2023-03-25T21:51:56.684Z,10.45
2023-03-25T21:54:26.537Z,11.15
2023-03-25T21:56:55.826Z,10.65
2023-03-25T21:59:26.213Z,11.88
2023-03-25T22:01:56.076Z,10.88
2023-03-25T22:04:24.937Z,10.88
2023-03-25T22:06:56.726Z,10.93
2023-03-25T22:09:25.462Z,10.90
2023-03-25T22:11:54.577Z,10.88
2023-03-25T22:14:23.794Z,11.05
2023-03-25T22:16:54.459Z,10.48
2023-03-25T22:19:24.657Z,10.75
2023-03-25T22:21:54.000Z,10.55
2023-03-25T22:24:22.821Z,10.10
2023-03-25T22:26:51.909Z,9.95
2023-03-25T22:29:20.906Z,9.10
2023-03-25T22:31:50.947Z,9.07
2023-03-25T22:34:21.056Z,9.55
2023-03-25T22:36:51.070Z,8.85
2023-03-25T22:39:23.206Z,9.20
2023-03-25T22:41:52.865Z,9.07
2023-03-25T22:44:22.363Z,8.70
2023-03-25T22:46:52.313Z,8.45
2023-03-25T22:49:22.897Z,8.65
2023-03-25T22:51:52.612Z,9.00
2023-03-25T22:54:21.456Z,8.48
2023-03-25T22:56:50.595Z,8.43
2023-03-25T22:59:19.378Z,8.30
2023-03-25T23:01:48.587Z,8.30
2023-03-25T23:04:17.344Z,8.40
2023-03-25T23:07:00.569Z,7.90
2023-03-25T23:09:43.891Z,7.70
2023-03-25T23:12:15.678Z,7.95
2023-03-25T23:14:50.806Z,8.02
2023-03-25T23:17:20.224Z,7.70
2023-03-25T23:19:49.134Z,7.85
2023-03-25T23:22:21.240Z,7.93
2023-03-25T23:24:50.102Z,6.72
2023-03-25T23:27:19.127Z,7.95
2023-03-25T23:29:48.125Z,7.90
2023-03-25T23:32:17.133Z,7.55
2023-03-25T23:34:46.352Z,7.53
2023-03-25T23:37:15.379Z,6.82
2023-03-25T23:39:46.352Z,6.80
2023-03-25T23:42:15.383Z,7.05
2023-03-25T23:44:44.477Z,6.68
2023-03-25T23:47:13.701Z,6.13
2023-03-25T23:49:44.231Z,6.88
2023-03-25T23:52:13.666Z,6.75
2023-03-25T23:54:44.475Z,6.50
2023-03-25T23:57:14.472Z,7.40
2023-03-25T23:59:44.168Z,6.40
